Orbital elements of FENGYUN 1C DEB
| Launched | 9 May 1999 |
| Flight ended | – |
| Launch site | Taiyuan Space Center, PRC |
| Owner | People's Republic of China |
| NORAD ID | 37400 |
| Date fetched |
Epoch osculation |
Inc. [°] |
Ecc. | RA asc node [hr] |
Arg Peri. [°] |
Mean anom [°] |
Mean motion [rev/day] |
Abs. mag |
| Date fetched |
Epoch osculation |
Inc. [°] |
Ecc. | RA asc node [hr] |
Arg Peri. [°] |
Mean anom [°] |
Mean motion [rev/day] |
Abs. mag |
| 2026 May 05 17:57 | 2026 May 03 05:38:07 | 98.8380 | 0.04019 | 20.8768 | 125.8941 | 238.0218 | 13.63838 | – |
| 2026 May 04 17:57 | 2026 Apr 29 06:33:21 | 98.8385 | 0.04020 | 20.6359 | 136.2527 | 238.0218 | 13.63838 | – |
| 2026 May 03 17:57 | 2026 Apr 29 06:33:21 | 98.8385 | 0.04020 | 20.6359 | 136.2527 | 238.0218 | 13.63838 | – |
| 2026 May 02 17:57 | 2026 Apr 29 06:33:21 | 98.8385 | 0.04020 | 20.6359 | 136.2527 | 238.0218 | 13.63838 | – |
| 2026 May 01 17:56 | 2026 Apr 29 06:33:21 | 98.8385 | 0.04020 | 20.6359 | 136.2527 | 238.0218 | 13.63838 | – |
| 2026 Apr 30 17:56 | 2026 Apr 29 06:33:21 | 98.8385 | 0.04020 | 20.6359 | 136.2527 | 238.0218 | 13.63838 | – |
| 2026 Apr 29 17:57 | 2026 Apr 21 18:57:31 | 98.8388 | 0.04016 | 20.1811 | 155.8332 | 238.0218 | 13.63838 | – |
| 2026 Apr 28 17:56 | 2026 Apr 21 18:57:31 | 98.8388 | 0.04016 | 20.1811 | 155.8332 | 238.0218 | 13.63838 | – |
| 2026 Apr 27 17:58 | 2026 Apr 21 18:57:31 | 98.8388 | 0.04016 | 20.1811 | 155.8332 | 238.0218 | 13.63838 | – |
| 2026 Apr 26 17:58 | 2026 Apr 21 18:57:31 | 98.8388 | 0.04016 | 20.1811 | 155.8332 | 238.0218 | 13.63838 | – |
| 2026 Apr 25 17:58 | 2026 Apr 21 18:57:31 | 98.8388 | 0.04016 | 20.1811 | 155.8332 | 238.0218 | 13.63838 | – |
| 2026 Apr 24 17:59 | 2026 Apr 21 18:57:31 | 98.8388 | 0.04016 | 20.1811 | 155.8332 | 238.0218 | 13.63838 | – |
| 2026 Apr 23 17:57 | 2026 Apr 18 06:26:29 | 98.8383 | 0.04014 | 19.9670 | 165.0543 | 238.0218 | 13.63838 | – |
| 2026 Apr 22 17:57 | 2026 Apr 18 06:26:29 | 98.8383 | 0.04014 | 19.9670 | 165.0543 | 238.0218 | 13.63838 | – |
| 2026 Apr 21 17:57 | 2026 Apr 18 06:26:29 | 98.8383 | 0.04014 | 19.9670 | 165.0543 | 238.0218 | 13.63838 | – |
| 2026 Apr 20 17:57 | 2026 Apr 18 06:26:29 | 98.8383 | 0.04014 | 19.9670 | 165.0543 | 238.0218 | 13.63838 | – |
| 2026 Apr 19 17:58 | 2026 Apr 18 06:26:29 | 98.8383 | 0.04014 | 19.9670 | 165.0543 | 238.0218 | 13.63838 | – |
| 2026 Apr 18 17:56 | 2026 Apr 13 06:42:28 | 98.8396 | 0.04012 | 19.6638 | 178.1242 | 238.0218 | 13.63838 | – |
| 2026 Apr 16 17:57 | 2026 Apr 13 06:42:28 | 98.8396 | 0.04012 | 19.6638 | 178.1242 | 238.0218 | 13.63838 | – |
| 2026 Apr 14 17:57 | 2026 Apr 13 06:42:28 | 98.8396 | 0.04012 | 19.6638 | 178.1242 | 238.0218 | 13.63838 | – |
| 2026 Apr 13 17:57 | 2026 Apr 13 06:42:28 | 98.8396 | 0.04012 | 19.6638 | 178.1242 | 238.0218 | 13.63838 | – |
| 2026 Apr 12 17:57 | 2026 Apr 07 18:38:55 | 98.8390 | 0.04010 | 19.3291 | 192.5462 | 238.0218 | 13.63838 | – |
| 2026 Apr 11 17:57 | 2026 Apr 07 18:38:55 | 98.8390 | 0.04010 | 19.3291 | 192.5462 | 238.0218 | 13.63838 | – |
| 2026 Apr 10 17:58 | 2026 Apr 07 18:38:55 | 98.8390 | 0.04010 | 19.3291 | 192.5462 | 238.0218 | 13.63838 | – |
| 2026 Apr 09 18:01 | 2026 Apr 07 18:38:55 | 98.8390 | 0.04010 | 19.3291 | 192.5462 | 238.0218 | 13.63838 | – |
| 2026 Apr 08 17:57 | 2026 Apr 07 18:38:55 | 98.8390 | 0.04010 | 19.3291 | 192.5462 | 238.0218 | 13.63838 | – |